Bill Jr — WCO6976 — position and weather

sailwx.info

Track history (hours):
 
Tides and Currents Weather Stations Pressure Air Temp Water Temp Dewpoint Dewpoint Depression Visibility Wind Speed Wind Dir Waves Ship Positions

Bill Jr

More information available from US FCC via Universal Licensing System and Coast Guard Vessel Documentation Center.

Last reported at 2014-Sep-30 10:24 UTC. Time now 2014-Sep-30 20:07 UTC.
Position N 29°57' W 090°22'.

Length 21 m.

MMSI: 366976750.

Date/timePositionNaut miles runAvg speedWind from/ knotsBaromVisibWave heightAir tempDewpointWater temp
2014-Sep-30 10:24N 29°57' W 090°22'6 7.4
2014-Sep-30 09:33N 30°00' W 090°28'6 5.9
2014-Sep-30 08:33N 30°03' W 090°34'2 1.7
2014-Sep-30 07:33N 30°03' W 090°32'2 1.8
2014-Sep-30 06:33N 30°03' W 090°30'2 1.9
2014-Sep-30 05:33N 30°02' W 090°28'2 1.8
2014-Sep-30 04:33N 30°00' W 090°28'2 2.3
2014-Sep-30 03:33N 29°60' W 090°26'3 3.0
2014-Sep-30 02:33N 30°01' W 090°28'4 4.4
2014-Sep-30 01:33N 30°03' W 090°33'3 2.9
2014-Sep-30 00:33N 30°03' W 090°30'3 3.2
2014-Sep-29 23:33N 30°00' W 090°28'7 0.2
2014-Sep-28 02:33N 29°56' W 090°21'2 2.0
2014-Sep-28 01:30N 29°57' W 090°24'3 3.3
2014-Sep-28 00:33N 29°60' W 090°26'0 0.5
2014-Sep-27 23:33N 29°59' W 090°25'0 0.1
2014-Sep-27 22:33N 29°59' W 090°25'3 3.4
2014-Sep-27 21:33N 30°02' W 090°28'4 3.8
2014-Sep-27 20:33N 30°03' W 090°33'3 3.1
2014-Sep-27 19:33N 30°03' W 090°29'3 3.4
2014-Sep-27 18:33N 29°60' W 090°27'4 3.8
2014-Sep-27 17:23N 29°57' W 090°23'  
2014-Sep-25 11:09N 29°56' W 090°21'2 2.3
2014-Sep-25 10:23N 29°56' W 090°19'3 0.3
2014-Sep-25 00:17N 29°56' W 090°22'4 4.9
2014-Sep-24 23:33N 29°59' W 090°25'9 4.4
2014-Sep-24 21:33N 30°03' W 090°34'0 0.1
2014-Sep-24 20:33N 30°03' W 090°34'0 0.1
2014-Sep-24 19:33N 30°03' W 090°34'0 0.2
2014-Sep-24 18:33N 30°03' W 090°34'0 0.1
2014-Sep-24 17:33N 30°03' W 090°34'1 1.0
2014-Sep-24 16:14N 30°03' W 090°36'3 4.0
2014-Sep-24 15:33N 30°03' W 090°33'11 3.6
2014-Sep-24 12:26N 29°56' W 090°22'0 0.2
2014-Sep-24 11:27N 29°56' W 090°22'  
2014-Sep-20 23:20N 29°58' W 090°18'  
Track history (hours):
 
Tides and Currents Weather Stations Pressure Air Temp Water Temp Dewpoint Dewpoint Depression Visibility Wind Speed Wind Dir Waves Ship Positions

Bill Jr

More information available from US FCC via Universal Licensing System and Coast Guard Vessel Documentation Center.

Last reported at 2014-Sep-30 10:24 UTC. Time now 2014-Sep-30 20:07 UTC.
Position N 29°57' W 090°22'.

Length 21 m.

MMSI: 366976750.

Date/timePositionNaut miles runAvg speedWind from/ knotsBaromVisibWave heightAir tempDewpointWater temp
2014-Sep-30 10:24N 29°57' W 090°22'6 7.4
2014-Sep-30 09:33N 30°00' W 090°28'6 5.9
2014-Sep-30 08:33N 30°03' W 090°34'2 1.7
2014-Sep-30 07:33N 30°03' W 090°32'2 1.8
2014-Sep-30 06:33N 30°03' W 090°30'2 1.9
2014-Sep-30 05:33N 30°02' W 090°28'2 1.8
2014-Sep-30 04:33N 30°00' W 090°28'2 2.3
2014-Sep-30 03:33N 29°60' W 090°26'3 3.0
2014-Sep-30 02:33N 30°01' W 090°28'4 4.4
2014-Sep-30 01:33N 30°03' W 090°33'3 2.9
2014-Sep-30 00:33N 30°03' W 090°30'3 3.2
2014-Sep-29 23:33N 30°00' W 090°28'7 0.2
2014-Sep-28 02:33N 29°56' W 090°21'2 2.0
2014-Sep-28 01:30N 29°57' W 090°24'3 3.3
2014-Sep-28 00:33N 29°60' W 090°26'0 0.5
2014-Sep-27 23:33N 29°59' W 090°25'0 0.1
2014-Sep-27 22:33N 29°59' W 090°25'3 3.4
2014-Sep-27 21:33N 30°02' W 090°28'4 3.8
2014-Sep-27 20:33N 30°03' W 090°33'3 3.1
2014-Sep-27 19:33N 30°03' W 090°29'3 3.4
2014-Sep-27 18:33N 29°60' W 090°27'4 3.8
2014-Sep-27 17:23N 29°57' W 090°23'  
2014-Sep-25 11:09N 29°56' W 090°21'2 2.3
2014-Sep-25 10:23N 29°56' W 090°19'3 0.3
2014-Sep-25 00:17N 29°56' W 090°22'4 4.9
2014-Sep-24 23:33N 29°59' W 090°25'9 4.4
2014-Sep-24 21:33N 30°03' W 090°34'0 0.1
2014-Sep-24 20:33N 30°03' W 090°34'0 0.1
2014-Sep-24 19:33N 30°03' W 090°34'0 0.2
2014-Sep-24 18:33N 30°03' W 090°34'0 0.1
2014-Sep-24 17:33N 30°03' W 090°34'1 1.0
2014-Sep-24 16:14N 30°03' W 090°36'3 4.0
2014-Sep-24 15:33N 30°03' W 090°33'11 3.6
2014-Sep-24 12:26N 29°56' W 090°22'0 0.2
2014-Sep-24 11:27N 29°56' W 090°22'  
2014-Sep-20 23:20N 29°58' W 090°18'  

Dump ship's entire track history